Oruro, Bolivia
Current Conditions -  °F | °C
As of 4:00 PM on Thursday 29 Jan 2015 (Local Time) from SLCB Reporting Station
Broken Clouds Broken Clouds  
Wind Chill: 68°   Ceiling: 20000
Heat Index: 68°   Visibility: 6mi
Dew Point: 52°   Wind: 7mph
Humidity: 56%   Direction: 260°W
Pressure: 30.27"   Gusts: NA
Location:  17.98°S, 67.12°W
Report Text: SLCB 292000Z 26006KT 9999 SCT023 FEW025CB BKN200 20/11 Q1025
Loading
Personal Weather Stations






























Interactive Weather Map New forecast layout! Learn more

10-Day Weather Forecast

Advertisements
Track Severe Weather on mobile